createdAt,value
2023-06-21T00:00:57.601Z,3666.00
2023-06-21T00:01:57.620Z,3649.00
2023-06-21T00:02:57.671Z,3689.00
2023-06-21T00:03:57.714Z,3701.00
2023-06-21T00:04:57.597Z,3699.00
2023-06-21T00:05:57.614Z,3684.00
2023-06-21T00:06:57.635Z,3695.00
2023-06-21T00:07:57.655Z,3731.00
2023-06-21T00:08:57.611Z,3685.00
2023-06-21T00:09:57.669Z,3710.00
2023-06-21T00:10:57.676Z,3726.00
2023-06-21T00:11:57.677Z,3580.00
2023-06-21T00:12:57.697Z,3598.00
2023-06-21T00:13:57.713Z,3668.00
2023-06-21T00:14:57.704Z,3706.00
2023-06-21T00:15:57.726Z,3715.00
2023-06-21T00:16:57.730Z,3722.00
2023-06-21T00:17:57.783Z,3687.00
2023-06-21T00:18:57.795Z,3675.00
2023-06-21T00:19:57.818Z,3704.00
2023-06-21T00:20:57.849Z,3799.00
2023-06-21T00:21:57.855Z,3821.00
2023-06-21T00:22:57.941Z,3814.00
2023-06-21T00:23:57.965Z,3756.00
2023-06-21T00:24:57.877Z,3715.00
2023-06-21T00:25:57.893Z,3709.00
2023-06-21T00:26:57.921Z,3587.00
2023-06-21T00:27:57.921Z,3469.00
2023-06-21T00:28:57.975Z,3414.00
2023-06-21T00:29:58.022Z,3511.00
2023-06-21T00:30:58.086Z,3669.00
2023-06-21T00:31:58.475Z,3730.00
2023-06-21T00:32:58.097Z,3813.00
2023-06-21T00:33:58.073Z,3772.00
2023-06-21T00:34:58.117Z,3805.00
2023-06-21T00:35:58.140Z,3834.00
2023-06-21T00:36:58.207Z,3816.00
2023-06-21T00:37:58.197Z,3787.00
2023-06-21T00:38:58.253Z,3753.00
2023-06-21T00:39:58.302Z,3750.00
2023-06-21T00:40:58.259Z,3783.00
2023-06-21T00:41:58.296Z,3734.00
2023-06-21T00:42:58.312Z,3713.00
2023-06-21T00:43:58.360Z,3776.00
2023-06-21T00:44:58.344Z,3828.00
2023-06-21T00:45:58.421Z,3843.00
2023-06-21T00:46:58.450Z,3801.00
2023-06-21T00:47:58.612Z,3772.00
2023-06-21T00:48:58.469Z,3747.00
2023-06-21T00:49:58.502Z,3769.00
2023-06-21T00:50:58.580Z,3727.00
2023-06-21T00:51:58.638Z,3696.00
2023-06-21T00:52:58.646Z,3585.00
2023-06-21T00:53:58.682Z,3599.00
2023-06-21T00:54:58.692Z,3651.00
2023-06-21T00:55:58.749Z,3655.00
2023-06-21T00:56:58.768Z,3705.00
2023-06-21T00:57:58.822Z,3760.00
2023-06-21T00:58:58.824Z,3809.00
2023-06-21T00:59:58.873Z,3833.00
2023-06-21T01:00:58.901Z,3888.00
2023-06-21T01:01:59.004Z,3941.00
2023-06-21T01:02:59.060Z,3977.00
2023-06-21T01:03:59.062Z,3987.00
2023-06-21T01:04:59.116Z,3927.00
2023-06-21T01:05:59.181Z,3954.00
2023-06-21T01:06:59.242Z,4013.00
2023-06-21T01:07:59.330Z,4141.00
2023-06-21T01:08:59.343Z,4242.00
2023-06-21T01:09:59.438Z,4286.00
2023-06-21T01:10:59.483Z,4429.00
2023-06-21T01:11:59.528Z,4566.00
2023-06-21T01:12:59.574Z,4656.00
2023-06-21T01:13:59.652Z,4718.00
2023-06-21T01:14:59.680Z,4706.00
2023-06-21T01:15:59.703Z,4640.00
2023-06-21T01:17:00.492Z,4530.00
2023-06-21T01:17:59.859Z,4498.00
2023-06-21T01:18:59.881Z,4539.00
2023-06-21T01:19:59.947Z,4606.00
2023-06-21T01:20:59.990Z,4665.00
2023-06-21T01:22:00.048Z,4662.00
2023-06-21T01:23:00.479Z,4662.00
2023-06-21T01:24:00.108Z,4700.00
2023-06-21T01:25:00.123Z,4679.00
2023-06-21T01:26:00.122Z,4657.00
2023-06-21T01:27:00.110Z,4695.00
2023-06-21T01:28:00.092Z,4761.00
2023-06-21T01:29:00.161Z,4855.00
2023-06-21T01:30:00.266Z,4904.00
2023-06-21T01:31:00.276Z,5024.00
2023-06-21T01:32:00.359Z,5090.00
2023-06-21T01:33:00.546Z,5153.00
2023-06-21T01:34:00.312Z,5202.00
2023-06-21T01:35:00.333Z,5245.00
2023-06-21T01:36:00.369Z,5288.00
2023-06-21T01:37:00.381Z,5316.00
2023-06-21T01:38:00.387Z,5301.00
2023-06-21T01:39:00.382Z,5321.00
2023-06-21T01:40:00.398Z,5373.00
2023-06-21T01:41:00.477Z,5371.00
2023-06-21T01:42:00.494Z,5388.00
2023-06-21T01:43:00.498Z,5373.00
2023-06-21T01:44:00.523Z,5394.00
2023-06-21T01:45:00.538Z,5428.00
2023-06-21T01:46:00.662Z,5466.00
2023-06-21T01:47:00.619Z,5483.00
2023-06-21T01:48:00.693Z,5466.00
2023-06-21T01:49:00.626Z,5494.00
2023-06-21T01:50:00.694Z,5463.00
2023-06-21T01:51:00.733Z,5475.00
2023-06-21T01:52:00.737Z,5470.00
2023-06-21T01:53:00.740Z,5457.00
2023-06-21T01:54:00.767Z,5422.00
2023-06-21T01:55:00.803Z,5431.00
2023-06-21T01:56:00.868Z,5426.00
2023-06-21T01:57:00.941Z,5420.00
2023-06-21T01:58:00.921Z,5387.00
2023-06-21T01:59:00.940Z,5354.00
2023-06-21T02:00:01.017Z,5335.00
2023-06-21T02:01:01.069Z,5348.00
2023-06-21T02:02:02.140Z,5350.00
2023-06-21T02:03:01.162Z,5344.00
2023-06-21T02:04:01.224Z,5341.00
2023-06-21T02:05:01.269Z,5328.00
2023-06-21T02:06:01.238Z,5340.00
2023-06-21T02:07:01.271Z,5301.00
2023-06-21T02:08:01.332Z,5264.00
2023-06-21T02:09:01.388Z,5221.00
2023-06-21T02:10:01.410Z,5211.00
2023-06-21T02:11:01.454Z,5155.00
2023-06-21T02:12:01.626Z,5013.00
2023-06-21T02:13:01.534Z,4992.00
2023-06-21T02:14:01.556Z,4965.00
2023-06-21T02:15:01.610Z,4921.00
2023-06-21T02:16:01.650Z,4753.00
2023-06-21T02:17:01.725Z,4670.00
2023-06-21T02:18:01.791Z,4608.00
2023-06-21T02:19:01.794Z,4587.00
2023-06-21T02:20:01.875Z,4544.00
2023-06-21T02:21:01.875Z,4471.00
2023-06-21T02:22:01.988Z,4449.00
2023-06-21T02:23:02.010Z,4435.00
2023-06-21T02:24:02.137Z,4469.00
2023-06-21T02:25:02.087Z,4496.00
2023-06-21T02:26:02.164Z,4471.00
2023-06-21T02:27:02.255Z,4507.00
2023-06-21T02:28:02.255Z,4514.00
2023-06-21T02:29:02.336Z,4558.00
2023-06-21T02:30:02.395Z,4546.00
2023-06-21T02:31:02.461Z,4592.00
2023-06-21T02:32:02.498Z,4554.00
2023-06-21T02:33:02.597Z,4582.00
2023-06-21T02:34:02.673Z,4581.00
2023-06-21T02:35:02.682Z,4547.00
2023-06-21T02:36:02.712Z,4560.00
2023-06-21T02:37:02.782Z,4594.00
2023-06-21T02:38:02.816Z,4626.00
2023-06-21T02:39:02.867Z,4675.00
2023-06-21T02:40:02.933Z,4675.00
2023-06-21T02:41:02.972Z,4716.00
2023-06-21T02:42:02.980Z,4738.00
2023-06-21T02:43:03.020Z,4804.00
2023-06-21T02:44:03.032Z,4838.00
2023-06-21T02:45:03.031Z,4841.00
2023-06-21T02:46:03.032Z,4870.00
2023-06-21T02:47:03.103Z,4866.00
2023-06-21T02:48:03.085Z,4850.00
2023-06-21T02:49:03.106Z,4878.00
2023-06-21T02:50:03.131Z,4893.00
2023-06-21T02:51:03.119Z,4875.00
2023-06-21T02:52:03.166Z,4784.00
2023-06-21T02:53:03.136Z,4723.00
2023-06-21T02:54:03.165Z,4680.00
2023-06-21T02:55:03.134Z,4681.00
2023-06-21T02:56:03.150Z,4699.00
2023-06-21T02:57:03.152Z,4733.00
2023-06-21T02:58:03.155Z,4708.00
2023-06-21T02:59:03.133Z,4726.00
2023-06-21T03:00:03.163Z,4761.00
2023-06-21T03:01:03.200Z,4846.00
2023-06-21T03:02:04.009Z,4882.00
2023-06-21T03:03:03.250Z,4960.00
2023-06-21T03:04:03.216Z,4984.00
2023-06-21T03:05:03.179Z,5033.00
2023-06-21T03:06:03.157Z,5064.00
2023-06-21T03:07:03.143Z,5050.00
2023-06-21T03:08:03.173Z,5052.00
2023-06-21T03:09:03.222Z,5035.00
2023-06-21T03:10:03.190Z,5035.00
2023-06-21T03:11:03.184Z,5030.00
2023-06-21T03:12:04.028Z,5049.00
2023-06-21T03:13:03.242Z,5054.00
2023-06-21T03:14:03.245Z,5036.00
2023-06-21T03:15:03.260Z,5044.00
2023-06-21T03:16:03.230Z,5016.00
2023-06-21T03:17:03.225Z,5043.00
2023-06-21T03:18:03.281Z,5070.00
2023-06-21T03:19:03.275Z,5069.00
2023-06-21T03:20:03.250Z,5049.00
2023-06-21T03:21:03.294Z,5016.00
2023-06-21T03:22:03.291Z,5004.00
2023-06-21T03:23:03.557Z,4981.00
2023-06-21T03:24:03.320Z,4984.00
2023-06-21T03:25:03.295Z,5042.00
2023-06-21T03:26:03.297Z,5088.00
2023-06-21T03:27:03.305Z,5071.00
2023-06-21T03:28:03.542Z,5009.00
2023-06-21T03:29:03.311Z,4983.00
2023-06-21T03:30:03.275Z,4995.00
2023-06-21T03:31:03.319Z,5003.00
2023-06-21T03:32:03.306Z,5038.00
2023-06-21T03:33:03.363Z,5075.00
2023-06-21T03:34:03.357Z,5062.00
2023-06-21T03:35:03.392Z,5075.00
2023-06-21T03:36:03.347Z,5090.00
2023-06-21T03:37:03.364Z,5069.00
2023-06-21T03:38:03.339Z,5084.00
2023-06-21T03:39:03.413Z,5057.00
2023-06-21T03:40:03.387Z,5073.00
2023-06-21T03:41:03.456Z,5073.00
2023-06-21T03:42:03.454Z,5085.00
2023-06-21T03:43:03.408Z,5097.00
2023-06-21T03:44:03.450Z,5086.00
2023-06-21T03:45:03.456Z,5121.00
2023-06-21T03:46:03.538Z,5133.00
2023-06-21T03:47:03.541Z,5093.00
2023-06-21T03:48:03.647Z,5080.00
2023-06-21T03:49:03.618Z,5088.00
2023-06-21T03:50:03.650Z,5105.00
2023-06-21T03:51:03.681Z,5123.00
2023-06-21T03:52:03.713Z,5167.00
2023-06-21T03:53:03.740Z,5175.00
2023-06-21T03:54:03.793Z,5208.00
2023-06-21T03:55:03.839Z,5252.00
2023-06-21T03:56:03.884Z,5280.00
2023-06-21T03:57:03.968Z,5257.00
2023-06-21T03:58:03.966Z,5234.00
2023-06-21T03:59:03.995Z,5223.00
2023-06-21T04:00:04.012Z,5250.00
2023-06-21T04:01:04.063Z,5252.00
2023-06-21T04:02:04.129Z,5247.00
2023-06-21T04:03:04.231Z,5291.00
2023-06-21T04:04:04.326Z,5340.00
2023-06-21T04:05:04.241Z,5299.00
2023-06-21T04:06:04.233Z,5299.00
2023-06-21T04:07:04.291Z,5255.00
2023-06-21T04:08:04.352Z,5199.00
2023-06-21T04:09:04.389Z,5183.00
2023-06-21T04:10:04.431Z,5224.00
2023-06-21T04:11:04.462Z,5285.00
2023-06-21T04:12:04.535Z,5289.00
2023-06-21T04:13:04.616Z,5304.00
2023-06-21T04:14:04.620Z,5275.00
2023-06-21T04:15:04.630Z,5276.00
2023-06-21T04:16:04.711Z,5276.00
2023-06-21T04:17:04.747Z,5289.00
2023-06-21T04:18:04.838Z,5285.00
2023-06-21T04:19:04.824Z,5320.00
2023-06-21T04:20:04.888Z,5350.00
2023-06-21T04:21:04.940Z,5408.00
2023-06-21T04:22:04.981Z,5425.00
2023-06-21T04:23:05.058Z,5426.00
2023-06-21T04:24:05.063Z,5396.00
2023-06-21T04:25:06.320Z,5319.00
2023-06-21T04:26:05.133Z,5242.00
2023-06-21T04:27:05.184Z,5179.00
2023-06-21T04:28:05.226Z,5169.00
2023-06-21T04:29:05.272Z,5164.00
2023-06-21T04:30:05.334Z,5143.00
2023-06-21T04:31:05.453Z,5138.00
2023-06-21T04:32:05.421Z,5127.00
2023-06-21T04:33:05.510Z,5098.00
2023-06-21T04:34:05.550Z,5124.00
2023-06-21T04:35:05.594Z,5114.00
2023-06-21T04:36:05.676Z,5081.00
2023-06-21T04:37:05.713Z,5039.00
2023-06-21T04:38:05.773Z,5023.00
2023-06-21T04:39:05.818Z,4945.00
2023-06-21T04:40:16.588Z,4936.00
2023-06-21T04:41:06.873Z,4937.00
2023-06-21T04:42:05.855Z,4939.00
2023-06-21T04:43:05.869Z,4946.00
2023-06-21T04:44:05.842Z,4972.00
2023-06-21T04:45:05.828Z,5023.00
2023-06-21T04:46:05.848Z,5031.00
2023-06-21T04:47:05.852Z,5055.00
2023-06-21T04:48:05.854Z,5067.00
2023-06-21T04:49:05.794Z,5009.00
2023-06-21T04:50:20.350Z,4964.00
2023-06-21T04:51:06.829Z,4963.00
2023-06-21T04:52:05.818Z,4892.00
2023-06-21T04:53:05.780Z,4896.00
2023-06-21T04:54:05.817Z,4921.00
2023-06-21T04:55:05.743Z,4860.00
2023-06-21T04:56:05.758Z,4816.00
2023-06-21T04:57:05.764Z,4809.00
2023-06-21T04:58:05.756Z,4808.00
2023-06-21T04:59:05.766Z,4818.00
2023-06-21T05:00:05.764Z,4854.00
2023-06-21T05:01:05.796Z,4900.00
2023-06-21T05:02:05.881Z,4909.00
2023-06-21T05:03:06.010Z,4875.00
2023-06-21T05:04:05.938Z,4872.00
2023-06-21T05:05:06.020Z,4833.00
2023-06-21T05:06:05.993Z,4829.00
2023-06-21T05:07:06.096Z,4863.00
2023-06-21T05:08:06.559Z,4904.00
2023-06-21T05:09:06.189Z,4893.00
2023-06-21T05:10:06.247Z,4890.00
2023-06-21T05:11:06.317Z,4911.00
2023-06-21T05:12:06.362Z,4872.00
2023-06-21T05:13:06.639Z,4844.00
2023-06-21T05:14:06.397Z,4808.00
2023-06-21T05:15:06.894Z,4776.00
2023-06-21T05:16:06.545Z,4779.00
2023-06-21T05:17:06.586Z,4745.00
2023-06-21T05:18:07.121Z,4628.00
2023-06-21T05:19:06.723Z,4639.00
2023-06-21T05:20:06.823Z,4725.00
2023-06-21T05:21:06.840Z,4631.00
2023-06-21T05:22:06.834Z,5407.00
2023-06-21T05:23:07.107Z,5726.00
2023-06-21T05:24:06.924Z,5827.00
2023-06-21T05:25:06.860Z,5528.00
2023-06-21T05:26:06.875Z,5631.00
2023-06-21T05:27:06.941Z,5674.00
2023-06-21T05:28:07.168Z,5802.00
2023-06-21T05:29:07.061Z,5853.00
2023-06-21T05:30:07.071Z,5914.00
2023-06-21T05:31:07.133Z,5904.00
2023-06-21T05:32:07.151Z,5936.00
2023-06-21T05:33:07.669Z,5999.00
2023-06-21T05:34:07.242Z,6004.00
2023-06-21T05:35:07.308Z,5991.00
2023-06-21T05:36:07.357Z,5984.00
2023-06-21T05:37:07.372Z,5990.00
2023-06-21T05:38:07.625Z,5991.00
2023-06-21T05:39:07.433Z,5995.00
2023-06-21T05:40:07.479Z,5919.00
2023-06-21T05:41:07.469Z,5849.00
2023-06-21T05:42:07.498Z,5946.00
2023-06-21T05:43:07.653Z,6006.00
2023-06-21T05:44:07.455Z,6027.00
2023-06-21T05:45:07.562Z,6190.00
2023-06-21T05:46:07.582Z,6577.00
2023-06-21T05:47:07.569Z,6814.00
2023-06-21T05:48:07.667Z,6906.00
2023-06-21T05:49:07.660Z,6828.00
2023-06-21T05:50:07.750Z,6839.00
2023-06-21T05:51:07.791Z,6988.00
2023-06-21T05:52:07.859Z,7505.00
2023-06-21T05:53:08.143Z,7889.00
2023-06-21T05:54:07.939Z,7988.00
2023-06-21T05:55:08.002Z,7570.00
2023-06-21T05:56:08.017Z,7508.00
2023-06-21T05:57:08.104Z,7154.00
2023-06-21T05:58:08.124Z,5979.00
2023-06-21T05:59:08.112Z,5625.00
2023-06-21T06:00:08.131Z,5530.00
2023-06-21T06:01:23.640Z,5546.00
2023-06-21T06:02:09.145Z,5492.00
2023-06-21T06:03:08.132Z,5562.00
2023-06-21T06:04:08.151Z,5614.00
2023-06-21T06:05:08.087Z,5636.00
2023-06-21T06:06:08.078Z,5660.00
2023-06-21T06:07:08.099Z,5532.00
2023-06-21T06:08:08.090Z,5479.00
2023-06-21T06:09:08.054Z,5512.00
2023-06-21T06:10:08.074Z,5576.00
2023-06-21T06:11:08.026Z,4958.00
2023-06-21T06:12:10.033Z,4272.00
2023-06-21T06:13:08.049Z,3926.00
2023-06-21T06:14:08.016Z,4011.00
2023-06-21T06:15:08.057Z,4112.00
2023-06-21T06:16:08.130Z,3758.00
2023-06-21T06:17:08.169Z,3669.00
2023-06-21T06:18:08.279Z,4025.00
2023-06-21T06:19:08.261Z,3674.00
2023-06-21T06:20:08.296Z,3745.00
2023-06-21T06:21:08.416Z,3962.00
2023-06-21T06:22:08.420Z,4238.00
2023-06-21T06:23:08.474Z,4548.00
2023-06-21T06:24:08.494Z,4391.00
2023-06-21T06:25:08.560Z,4207.00
2023-06-21T06:26:10.255Z,4500.00
2023-06-21T06:27:08.626Z,4287.00
2023-06-21T06:28:08.695Z,4083.00
2023-06-21T06:29:08.689Z,3732.00
2023-06-21T06:30:08.789Z,3385.00
2023-06-21T06:31:08.846Z,3595.00
2023-06-21T06:32:08.856Z,3838.00
2023-06-21T06:33:08.950Z,4116.00
2023-06-21T06:34:08.962Z,4178.00
2023-06-21T06:35:09.002Z,4240.00
2023-06-21T06:36:08.973Z,3958.00
2023-06-21T06:37:14.687Z,3812.00
2023-06-21T06:38:10.049Z,3813.00
2023-06-21T06:39:09.011Z,3544.00
2023-06-21T06:40:09.032Z,3734.00
2023-06-21T06:41:08.994Z,3572.00
2023-06-21T06:42:09.031Z,3447.00
2023-06-21T06:43:09.141Z,3638.00
2023-06-21T06:44:09.011Z,4025.00
2023-06-21T06:45:08.978Z,3826.00
2023-06-21T06:46:09.012Z,3859.00
2023-06-21T06:47:08.979Z,4256.00
2023-06-21T06:48:08.962Z,3895.00
2023-06-21T06:49:08.962Z,3241.00
2023-06-21T06:50:08.993Z,3402.00
2023-06-21T06:51:09.026Z,3466.00
2023-06-21T06:52:09.004Z,3816.00
2023-06-21T06:53:09.062Z,3446.00
2023-06-21T06:54:09.050Z,3562.00
2023-06-21T06:55:09.053Z,3517.00
2023-06-21T06:56:09.068Z,3359.00
2023-06-21T06:57:13.642Z,3321.00
2023-06-21T06:58:10.115Z,3325.00
2023-06-21T06:59:09.104Z,3361.00
2023-06-21T07:00:09.119Z,3372.00
2023-06-21T07:01:09.056Z,3360.00
2023-06-21T07:02:09.063Z,3484.00
2023-06-21T07:03:09.062Z,3346.00
2023-06-21T07:04:09.156Z,3633.00
2023-06-21T07:05:09.102Z,3663.00
2023-06-21T07:06:09.015Z,3629.00
2023-06-21T07:07:09.031Z,3746.00
2023-06-21T07:08:09.184Z,3227.00
2023-06-21T07:09:09.077Z,3428.00
2023-06-21T07:10:09.023Z,3251.00
2023-06-21T07:11:08.977Z,3207.00
2023-06-21T07:12:08.988Z,2914.00
2023-06-21T07:13:09.179Z,2973.00
2023-06-21T07:14:09.009Z,2852.00
2023-06-21T07:15:09.016Z,2908.00
2023-06-21T07:16:09.003Z,2912.00
2023-06-21T07:17:08.948Z,3127.00
2023-06-21T07:18:09.176Z,3417.00
2023-06-21T07:19:08.937Z,3453.00
2023-06-21T07:20:09.049Z,3123.00
2023-06-21T07:21:08.956Z,2554.00
2023-06-21T07:22:08.920Z,2653.00
2023-06-21T07:23:08.948Z,3092.00
2023-06-21T07:24:08.951Z,3203.00
2023-06-21T07:25:08.906Z,2915.00
2023-06-21T07:26:08.924Z,2576.00
2023-06-21T07:27:08.991Z,2281.00
2023-06-21T07:28:08.956Z,2248.00
2023-06-21T07:29:08.953Z,2793.00
2023-06-21T07:30:08.978Z,2870.00
2023-06-21T07:31:08.940Z,2975.00
2023-06-21T07:32:08.931Z,2744.00
2023-06-21T07:33:08.990Z,3107.00
2023-06-21T07:34:10.955Z,3056.00
2023-06-21T07:35:09.084Z,2341.00
2023-06-21T07:36:09.156Z,2069.00
2023-06-21T07:37:09.220Z,2325.00
2023-06-21T07:38:09.280Z,2107.00
2023-06-21T07:39:09.409Z,2538.00
2023-06-21T07:40:09.417Z,2896.00
2023-06-21T07:41:09.446Z,3176.00
2023-06-21T07:42:14.305Z,3391.00
2023-06-21T07:43:10.691Z,3395.00
2023-06-21T07:44:09.472Z,3440.00
2023-06-21T07:45:09.502Z,3476.00
2023-06-21T07:46:15.706Z,3184.00
2023-06-21T07:47:10.528Z,3275.00
2023-06-21T07:48:09.504Z,3198.00
2023-06-21T07:49:09.439Z,2482.00
2023-06-21T07:51:09.411Z,2678.00
2023-06-21T07:52:09.410Z,3012.00
2023-06-21T07:53:09.683Z,2593.00
2023-06-21T07:54:09.400Z,2334.00
2023-06-21T07:55:09.387Z,2421.00
2023-06-21T07:56:09.440Z,2277.00
2023-06-21T07:57:09.414Z,2259.00
2023-06-21T07:58:10.197Z,2362.00
2023-06-21T07:59:09.372Z,2392.00
2023-06-21T08:00:09.368Z,1802.00
2023-06-21T08:01:09.494Z,1526.00
2023-06-21T08:02:09.408Z,1391.00
2023-06-21T08:03:09.719Z,1354.00
2023-06-21T08:04:09.439Z,1370.00
2023-06-21T08:05:09.377Z,1992.00
2023-06-21T08:06:09.373Z,1956.00
2023-06-21T08:07:09.314Z,1757.00
2023-06-21T08:08:09.720Z,2392.00
2023-06-21T08:09:09.347Z,2412.00
2023-06-21T08:10:09.335Z,2742.00
2023-06-21T08:11:09.332Z,2577.00
2023-06-21T08:12:09.434Z,2466.00
2023-06-21T08:13:09.728Z,2019.00
2023-06-21T08:14:09.323Z,1767.00
2023-06-21T08:15:09.293Z,1928.00
2023-06-21T08:16:09.306Z,1515.00
2023-06-21T08:17:09.262Z,1487.00
2023-06-21T08:18:09.735Z,1792.00
2023-06-21T08:19:09.266Z,1479.00
2023-06-21T08:20:09.249Z,1482.00
2023-06-21T08:21:09.231Z,1354.00
2023-06-21T08:22:09.239Z,1306.00
2023-06-21T08:23:09.224Z,1256.00
2023-06-21T08:24:09.242Z,1185.00
2023-06-21T08:25:09.222Z,1145.00
2023-06-21T08:26:09.233Z,1164.00
2023-06-21T08:27:10.192Z,1204.00
2023-06-21T08:28:09.258Z,1365.00
2023-06-21T08:29:09.212Z,1354.00
2023-06-21T08:30:09.209Z,1236.00
2023-06-21T08:31:09.210Z,1344.00
2023-06-21T08:32:09.296Z,1299.00
2023-06-21T08:33:11.803Z,1324.00
2023-06-21T08:34:09.155Z,1190.00
2023-06-21T08:35:09.210Z,1290.00
2023-06-21T08:36:09.182Z,1307.00
2023-06-21T08:37:09.176Z,1350.00
2023-06-21T08:38:26.644Z,1200.00
2023-06-21T08:39:10.158Z,1289.00
2023-06-21T08:40:09.138Z,1226.00
2023-06-21T08:41:09.129Z,933.00
2023-06-21T08:42:09.102Z,1022.00
2023-06-21T08:43:09.140Z,869.00
2023-06-21T08:44:09.086Z,820.00
2023-06-21T08:45:09.088Z,1083.00
2023-06-21T08:46:09.433Z,1321.00
2023-06-21T08:47:09.082Z,1224.00
2023-06-21T08:48:09.180Z,1227.00
2023-06-21T08:49:09.046Z,829.00
2023-06-21T08:50:09.072Z,659.00
2023-06-21T08:51:09.079Z,738.00
2023-06-21T08:52:09.083Z,644.00
2023-06-21T08:53:09.073Z,731.00
2023-06-21T08:54:09.163Z,589.00
2023-06-21T08:55:09.134Z,567.00
2023-06-21T08:56:09.129Z,592.00
2023-06-21T08:57:09.130Z,574.00
2023-06-21T08:58:10.773Z,582.00
2023-06-21T08:59:09.253Z,605.00
2023-06-21T09:00:09.338Z,803.00
2023-06-21T09:01:09.436Z,613.00
2023-06-21T09:02:09.479Z,565.00
2023-06-21T09:03:09.586Z,581.00
2023-06-21T09:04:09.623Z,694.00
2023-06-21T09:05:09.532Z,988.00
2023-06-21T09:06:09.561Z,688.00
2023-06-21T09:07:09.687Z,523.00
2023-06-21T09:08:10.676Z,561.00
2023-06-21T09:09:09.757Z,555.00
2023-06-21T09:10:09.820Z,565.00
2023-06-21T09:11:09.845Z,589.00
2023-06-21T09:12:09.929Z,609.00
2023-06-21T09:13:09.967Z,570.00
2023-06-21T09:14:10.065Z,521.00
2023-06-21T09:15:10.081Z,595.00
2023-06-21T09:16:10.187Z,653.00
2023-06-21T09:17:10.218Z,652.00
2023-06-21T09:18:10.415Z,797.00
2023-06-21T09:19:10.230Z,609.00
2023-06-21T09:20:10.248Z,500.00
2023-06-21T09:21:10.331Z,530.00
2023-06-21T09:22:10.337Z,500.00
2023-06-21T09:23:10.718Z,528.00
2023-06-21T09:24:10.489Z,573.00
2023-06-21T09:25:10.709Z,587.00
2023-06-21T09:26:10.473Z,573.00
2023-06-21T09:27:10.544Z,599.00
2023-06-21T09:28:10.510Z,497.00
2023-06-21T09:29:10.549Z,492.00
2023-06-21T09:30:35.268Z,486.00
2023-06-21T09:31:11.593Z,461.00
2023-06-21T09:32:10.610Z,481.00
2023-06-21T09:33:10.808Z,489.00
2023-06-21T09:34:10.586Z,507.00
2023-06-21T09:35:10.572Z,498.00
2023-06-21T09:36:10.576Z,553.00
2023-06-21T09:37:10.555Z,526.00
2023-06-21T09:38:10.523Z,501.00
2023-06-21T09:39:10.542Z,508.00
2023-06-21T09:40:10.520Z,645.00
2023-06-21T09:41:10.720Z,896.00
2023-06-21T09:42:10.509Z,700.00
2023-06-21T09:43:10.517Z,947.00
2023-06-21T09:44:10.549Z,1229.00
2023-06-21T09:45:10.452Z,934.00
2023-06-21T09:46:10.511Z,710.00
2023-06-21T09:47:10.482Z,730.00
2023-06-21T09:48:10.566Z,887.00
2023-06-21T09:49:10.646Z,943.00
2023-06-21T09:50:10.501Z,825.00
2023-06-21T09:51:10.447Z,729.00
2023-06-21T09:52:10.452Z,622.00
2023-06-21T09:53:10.435Z,572.00
2023-06-21T09:54:10.484Z,594.00
2023-06-21T09:55:10.563Z,598.00
2023-06-21T09:56:10.633Z,594.00
2023-06-21T09:57:10.668Z,568.00
2023-06-21T09:58:10.750Z,512.00
2023-06-21T09:59:10.797Z,497.00
2023-06-21T10:00:10.810Z,577.00
2023-06-21T10:01:10.926Z,484.00
2023-06-21T10:02:10.915Z,406.00
2023-06-21T10:03:11.045Z,406.00
2023-06-21T10:04:11.308Z,548.00
2023-06-21T10:05:11.068Z,628.00
2023-06-21T10:06:11.133Z,650.00
2023-06-21T10:07:11.154Z,898.00
2023-06-21T10:08:11.222Z,754.00
2023-06-21T10:09:11.243Z,507.00
2023-06-21T10:10:11.247Z,534.00
2023-06-21T10:11:11.285Z,635.00
2023-06-21T10:12:11.293Z,1063.00
2023-06-21T10:13:11.339Z,655.00
2023-06-21T10:14:11.735Z,669.00
2023-06-21T10:15:11.441Z,1099.00
2023-06-21T10:16:11.397Z,1179.00
2023-06-21T10:17:11.432Z,1117.00
2023-06-21T10:18:11.431Z,1013.00
2023-06-21T10:19:11.408Z,820.00
2023-06-21T10:20:11.528Z,632.00
2023-06-21T10:21:11.441Z,552.00
2023-06-21T10:22:11.482Z,542.00
2023-06-21T10:23:11.453Z,630.00
2023-06-21T10:24:11.488Z,450.00
2023-06-21T10:25:11.450Z,594.00
2023-06-21T10:26:11.492Z,895.00
2023-06-21T10:27:11.489Z,841.00
2023-06-21T10:28:11.522Z,660.00
2023-06-21T10:29:11.500Z,659.00
2023-06-21T10:30:11.492Z,611.00
2023-06-21T10:31:11.486Z,593.00
2023-06-21T10:32:11.614Z,520.00
2023-06-21T10:33:11.566Z,503.00
2023-06-21T10:34:11.583Z,588.00
2023-06-21T10:35:11.591Z,657.00
2023-06-21T10:36:11.707Z,598.00
2023-06-21T10:37:11.630Z,535.00
2023-06-21T10:38:11.701Z,573.00
2023-06-21T10:39:11.693Z,920.00
2023-06-21T10:40:12.284Z,1166.00
2023-06-21T10:41:11.827Z,1229.00
2023-06-21T10:42:11.879Z,1108.00
2023-06-21T10:43:11.966Z,754.00
2023-06-21T10:44:12.013Z,989.00
2023-06-21T10:45:12.050Z,923.00
2023-06-21T10:46:12.187Z,837.00
2023-06-21T10:47:12.127Z,648.00
2023-06-21T10:48:14.797Z,675.00
2023-06-21T10:49:12.186Z,750.00
2023-06-21T10:50:12.182Z,696.00
2023-06-21T10:51:12.149Z,813.00
2023-06-21T10:52:12.119Z,992.00
2023-06-21T10:53:12.190Z,817.00
2023-06-21T10:54:12.133Z,971.00
2023-06-21T10:55:12.133Z,1118.00
2023-06-21T10:56:12.112Z,1295.00
2023-06-21T10:57:12.120Z,1079.00
2023-06-21T10:58:12.108Z,790.00
2023-06-21T10:59:12.161Z,773.00
2023-06-21T11:00:12.112Z,949.00
2023-06-21T11:01:12.137Z,698.00
2023-06-21T11:02:12.084Z,632.00
2023-06-21T11:03:12.127Z,628.00
2023-06-21T11:04:12.195Z,674.00
2023-06-21T11:05:12.220Z,665.00
2023-06-21T11:06:12.093Z,638.00
2023-06-21T11:07:12.130Z,666.00
2023-06-21T11:08:12.057Z,817.00
2023-06-21T11:09:12.211Z,692.00
2023-06-21T11:10:12.048Z,657.00
2023-06-21T11:11:12.049Z,618.00
2023-06-21T11:12:12.050Z,570.00
2023-06-21T11:13:12.024Z,603.00
2023-06-21T11:14:12.044Z,595.00
2023-06-21T11:15:12.017Z,601.00
2023-06-21T11:16:12.029Z,527.00
2023-06-21T11:17:12.018Z,505.00
2023-06-21T11:18:12.215Z,569.00
2023-06-21T11:19:12.302Z,547.00
2023-06-21T11:20:12.010Z,524.00
2023-06-21T11:21:12.053Z,538.00
2023-06-21T11:22:12.053Z,507.00
2023-06-21T11:23:12.094Z,522.00
2023-06-21T11:24:12.285Z,579.00
2023-06-21T11:25:12.151Z,577.00
2023-06-21T11:26:12.157Z,547.00
2023-06-21T11:27:12.200Z,537.00
2023-06-21T11:28:12.213Z,549.00
2023-06-21T11:29:12.310Z,521.00
2023-06-21T11:30:12.262Z,500.00
2023-06-21T11:31:12.302Z,517.00
2023-06-21T11:32:12.350Z,545.00
2023-06-21T11:33:12.331Z,598.00
2023-06-21T11:34:12.400Z,586.00
2023-06-21T11:35:12.465Z,587.00
2023-06-21T11:36:12.781Z,549.00
2023-06-21T11:37:12.509Z,582.00
2023-06-21T11:38:12.528Z,590.00
2023-06-21T11:39:12.821Z,601.00
2023-06-21T11:40:12.553Z,583.00
2023-06-21T11:41:12.599Z,632.00
2023-06-21T11:42:12.604Z,650.00
2023-06-21T11:43:12.644Z,624.00
2023-06-21T11:44:12.719Z,686.00
2023-06-21T11:45:12.756Z,802.00
2023-06-21T11:46:12.846Z,839.00
2023-06-21T11:47:12.888Z,837.00
2023-06-21T11:48:13.006Z,823.00
2023-06-21T11:49:13.097Z,766.00
2023-06-21T11:50:13.028Z,793.00
2023-06-21T11:51:13.074Z,811.00
2023-06-21T11:52:13.083Z,780.00
2023-06-21T11:53:13.090Z,666.00
2023-06-21T11:54:13.099Z,726.00
2023-06-21T11:55:13.120Z,768.00
2023-06-21T11:56:13.103Z,659.00
2023-06-21T11:57:13.127Z,605.00
2023-06-21T11:58:13.126Z,596.00
2023-06-21T11:59:13.141Z,594.00
2023-06-21T12:00:13.301Z,589.00
2023-06-21T12:01:13.134Z,585.00
2023-06-21T12:02:13.150Z,575.00
2023-06-21T12:03:13.277Z,601.00
2023-06-21T12:04:13.270Z,731.00
2023-06-21T12:05:13.307Z,663.00
2023-06-21T12:06:13.128Z,660.00
2023-06-21T12:07:13.215Z,621.00
2023-06-21T12:08:13.216Z,627.00
2023-06-21T12:09:13.209Z,626.00
2023-06-21T12:10:13.299Z,559.00
2023-06-21T12:11:13.356Z,527.00
2023-06-21T12:12:13.364Z,588.00
2023-06-21T12:13:13.458Z,593.00